CXBKX YBBN-YTWB
Flight info
| Callsign | CXBKX |
|---|---|
| Flight time | 0h 43m |
| Altitude | 6000 |
| Route | BN W354 ENKOG W311 BIVAT |
| Aircraft | C182/L-SDGRY/S |
Departure
| Time | 2026-04-25 08:35 |
|---|---|
| Airport | Brisbane International Airport (YBBN) |
Arrival
| Time | 2026-04-25 09:18 |
|---|---|
| Airport | Toowoomba Airport (YTWB) |
| Time | Latitude | Longitude | Altitude | Speed | Heading |
|---|---|---|---|---|---|
| 2026-04-25 08:14 | -27.37317 | 153.12575 | 13 ft | 0 kts | 27° |
| 2026-04-25 08:26 | -27.37305 | 153.12582 | 13 ft | 0 kts | 35° |
| 2026-04-25 08:26 | -27.37298 | 153.12588 | 13 ft | 3 kts | 39° |
| 2026-04-25 08:26 | -27.37311 | 153.12630 | 13 ft | 8 kts | 118° |
| 2026-04-25 08:26 | -27.37329 | 153.12682 | 13 ft | 10 kts | 113° |
| 2026-04-25 08:28 | -27.37359 | 153.12721 | 13 ft | 5 kts | 115° |
| 2026-04-25 08:28 | -27.37361 | 153.12730 | 13 ft | 1 kts | 104° |
| 2026-04-25 08:28 | -27.37365 | 153.12742 | 13 ft | 5 kts | 114° |
| 2026-04-25 08:29 | -27.37374 | 153.12770 | 13 ft | 4 kts | 105° |
| 2026-04-25 08:29 | -27.37386 | 153.12802 | 13 ft | 6 kts | 126° |
| 2026-04-25 08:29 | -27.37410 | 153.12826 | 13 ft | 4 kts | 130° |
| 2026-04-25 08:29 | -27.37420 | 153.12840 | 13 ft | 7 kts | 144° |
| 2026-04-25 08:30 | -27.37430 | 153.12847 | 13 ft | 1 kts | 123° |
| 2026-04-25 08:30 | -27.37432 | 153.12851 | 13 ft | 4 kts | 123° |
| 2026-04-25 08:30 | -27.37434 | 153.12935 | 13 ft | 19 kts | 108° |
| 2026-04-25 08:30 | -27.37480 | 153.13086 | 13 ft | 18 kts | 63° |
| 2026-04-25 08:31 | -27.37389 | 153.13178 | 13 ft | 17 kts | 39° |
| 2026-04-25 08:31 | -27.37328 | 153.13283 | 13 ft | 17 kts | 82° |
| 2026-04-25 08:31 | -27.37358 | 153.13396 | 14 ft | 11 kts | 133° |
| 2026-04-25 08:31 | -27.37387 | 153.13418 | 15 ft | 0 kts | 154° |
| 2026-04-25 08:34 | -27.37410 | 153.13431 | 15 ft | 12 kts | 158° |
| 2026-04-25 08:34 | -27.37555 | 153.13391 | 15 ft | 36 kts | 206° |
| 2026-04-25 08:34 | -27.37915 | 153.13190 | 14 ft | 77 kts | 206° |
| 2026-04-25 08:34 | -27.38403 | 153.12889 | 216 ft | 83 kts | 209° |
| 2026-04-25 08:35 | -27.38410 | 153.12885 | 220 ft | 83 kts | 209° |
| 2026-04-25 08:35 | -27.38818 | 153.12646 | 370 ft | 89 kts | 206° |
| 2026-04-25 08:35 | -27.39381 | 153.12317 | 615 ft | 94 kts | 202° |
| 2026-04-25 08:36 | -27.39951 | 153.11964 | 777 ft | 94 kts | 205° |
| 2026-04-25 08:36 | -27.40511 | 153.11577 | 982 ft | 93 kts | 205° |
| 2026-04-25 08:36 | -27.41080 | 153.11190 | 1112 ft | 98 kts | 200° |
| 2026-04-25 08:36 | -27.41699 | 153.10839 | 1224 ft | 102 kts | 199° |
| 2026-04-25 08:37 | -27.42345 | 153.10460 | 1380 ft | 104 kts | 199° |
| 2026-04-25 08:37 | -27.42975 | 153.10081 | 1545 ft | 102 kts | 198° |
| 2026-04-25 08:37 | -27.43595 | 153.09709 | 1717 ft | 100 kts | 198° |
| 2026-04-25 08:37 | -27.44203 | 153.09343 | 1885 ft | 98 kts | 197° |
| 2026-04-25 08:38 | -27.44810 | 153.08979 | 2066 ft | 100 kts | 196° |
| 2026-04-25 08:38 | -27.45417 | 153.08614 | 2238 ft | 99 kts | 196° |
| 2026-04-25 08:38 | -27.46024 | 153.08248 | 2406 ft | 98 kts | 195° |
| 2026-04-25 08:38 | -27.46610 | 153.07894 | 2572 ft | 96 kts | 195° |
| 2026-04-25 08:39 | -27.47172 | 153.07556 | 2741 ft | 97 kts | 195° |
| 2026-04-25 08:39 | -27.47764 | 153.07199 | 2910 ft | 98 kts | 195° |
| 2026-04-25 08:39 | -27.48365 | 153.06836 | 3085 ft | 97 kts | 195° |
| 2026-04-25 08:39 | -27.48953 | 153.06480 | 3257 ft | 94 kts | 195° |
| 2026-04-25 08:40 | -27.49530 | 153.06132 | 3429 ft | 93 kts | 195° |
| 2026-04-25 08:40 | -27.50095 | 153.05791 | 3588 ft | 91 kts | 195° |
| 2026-04-25 08:40 | -27.50646 | 153.05459 | 3758 ft | 91 kts | 194° |
| 2026-04-25 08:40 | -27.51205 | 153.05122 | 3949 ft | 92 kts | 194° |
| 2026-04-25 08:41 | -27.51775 | 153.04779 | 4127 ft | 94 kts | 194° |
| 2026-04-25 08:41 | -27.52350 | 153.04432 | 4307 ft | 94 kts | 194° |
| 2026-04-25 08:41 | -27.52934 | 153.04080 | 4483 ft | 96 kts | 194° |
| 2026-04-25 08:41 | -27.53531 | 153.03720 | 4665 ft | 98 kts | 194° |
| 2026-04-25 08:42 | -27.54129 | 153.03357 | 4840 ft | 97 kts | 194° |
| 2026-04-25 08:42 | -27.54718 | 153.03000 | 5017 ft | 96 kts | 194° |
| 2026-04-25 08:42 | -27.55303 | 153.02646 | 5186 ft | 95 kts | 194° |
| 2026-04-25 08:42 | -27.55883 | 153.02296 | 5358 ft | 95 kts | 194° |
| 2026-04-25 08:43 | -27.56460 | 153.01947 | 5524 ft | 95 kts | 194° |
| 2026-04-25 08:43 | -27.56953 | 153.01397 | 5665 ft | 112 kts | 234° |
| 2026-04-25 08:43 | -27.57018 | 153.00481 | 5830 ft | 120 kts | 266° |
| 2026-04-25 08:43 | -27.56988 | 152.99555 | 5994 ft | 117 kts | 263° |
| 2026-04-25 08:44 | -27.56967 | 152.98639 | 6111 ft | 121 kts | 263° |
| 2026-04-25 08:44 | -27.56950 | 152.97587 | 6017 ft | 144 kts | 264° |
| 2026-04-25 08:44 | -27.56923 | 152.96432 | 6012 ft | 153 kts | 265° |
| 2026-04-25 08:44 | -27.56893 | 152.95213 | 6011 ft | 158 kts | 265° |
| 2026-04-25 08:45 | -27.56864 | 152.93959 | 6011 ft | 161 kts | 265° |
| 2026-04-25 08:45 | -27.56835 | 152.92686 | 6011 ft | 163 kts | 265° |
| 2026-04-25 08:45 | -27.56806 | 152.91401 | 6011 ft | 165 kts | 265° |
| 2026-04-25 08:45 | -27.56778 | 152.90101 | 6011 ft | 166 kts | 266° |
| 2026-04-25 08:46 | -27.56748 | 152.88801 | 6010 ft | 166 kts | 266° |
| 2026-04-25 08:46 | -27.56718 | 152.87494 | 6009 ft | 167 kts | 265° |
| 2026-04-25 08:46 | -27.56689 | 152.86188 | 6010 ft | 167 kts | 265° |
| 2026-04-25 08:46 | -27.56659 | 152.84886 | 6011 ft | 166 kts | 265° |
| 2026-04-25 08:47 | -27.56629 | 152.83583 | 6011 ft | 167 kts | 265° |
| 2026-04-25 08:47 | -27.56600 | 152.82287 | 6011 ft | 167 kts | 265° |
| 2026-04-25 08:47 | -27.56569 | 152.80975 | 6011 ft | 168 kts | 266° |
| 2026-04-25 08:47 | -27.56539 | 152.79655 | 6011 ft | 169 kts | 266° |
| 2026-04-25 08:48 | -27.56508 | 152.78330 | 6012 ft | 169 kts | 266° |
| 2026-04-25 08:48 | -27.56477 | 152.77006 | 6012 ft | 168 kts | 265° |
| 2026-04-25 08:48 | -27.56446 | 152.75685 | 6009 ft | 168 kts | 265° |
| 2026-04-25 08:48 | -27.56415 | 152.74379 | 6006 ft | 166 kts | 266° |
| 2026-04-25 08:49 | -27.56385 | 152.73068 | 6008 ft | 168 kts | 266° |
| 2026-04-25 08:49 | -27.56353 | 152.71749 | 6008 ft | 169 kts | 266° |
| 2026-04-25 08:49 | -27.56322 | 152.70421 | 6012 ft | 169 kts | 266° |
| 2026-04-25 08:49 | -27.56290 | 152.69088 | 6006 ft | 171 kts | 266° |
| 2026-04-25 08:50 | -27.56257 | 152.67758 | 6002 ft | 168 kts | 265° |
| 2026-04-25 08:50 | -27.56225 | 152.66444 | 6004 ft | 168 kts | 265° |
| 2026-04-25 08:50 | -27.56194 | 152.65123 | 6005 ft | 169 kts | 265° |
| 2026-04-25 08:50 | -27.56162 | 152.63798 | 6003 ft | 169 kts | 266° |
| 2026-04-25 08:51 | -27.56130 | 152.62473 | 6002 ft | 170 kts | 266° |
| 2026-04-25 08:51 | -27.56097 | 152.61144 | 6002 ft | 170 kts | 266° |
| 2026-04-25 08:51 | -27.56064 | 152.59818 | 6000 ft | 169 kts | 265° |
| 2026-04-25 08:51 | -27.56032 | 152.58494 | 6004 ft | 169 kts | 265° |
| 2026-04-25 08:52 | -27.55999 | 152.57167 | 6004 ft | 170 kts | 266° |
| 2026-04-25 08:52 | -27.55964 | 152.55836 | 5999 ft | 169 kts | 266° |
| 2026-04-25 08:52 | -27.55931 | 152.54517 | 6001 ft | 169 kts | 265° |
| 2026-04-25 08:52 | -27.55901 | 152.53191 | 6004 ft | 169 kts | 266° |
| 2026-04-25 08:53 | -27.55867 | 152.51868 | 6003 ft | 169 kts | 265° |
| 2026-04-25 08:53 | -27.55832 | 152.50548 | 5997 ft | 168 kts | 266° |
| 2026-04-25 08:53 | -27.55800 | 152.49255 | 5998 ft | 167 kts | 266° |
| 2026-04-25 08:53 | -27.55767 | 152.47939 | 5997 ft | 168 kts | 265° |
| 2026-04-25 08:54 | -27.55733 | 152.46618 | 5996 ft | 168 kts | 266° |
| 2026-04-25 08:54 | -27.55699 | 152.45292 | 5998 ft | 169 kts | 266° |
| 2026-04-25 08:54 | -27.55664 | 152.43964 | 5994 ft | 170 kts | 266° |
| 2026-04-25 08:54 | -27.55631 | 152.42633 | 5999 ft | 170 kts | 265° |
| 2026-04-25 08:55 | -27.55597 | 152.41304 | 5997 ft | 170 kts | 266° |
| 2026-04-25 08:55 | -27.55562 | 152.39974 | 5999 ft | 169 kts | 266° |
| 2026-04-25 08:55 | -27.55527 | 152.38647 | 5998 ft | 170 kts | 266° |
| 2026-04-25 08:55 | -27.55493 | 152.37332 | 5997 ft | 169 kts | 266° |
| 2026-04-25 08:56 | -27.55458 | 152.36005 | 5997 ft | 170 kts | 266° |
| 2026-04-25 08:56 | -27.55422 | 152.34657 | 5993 ft | 170 kts | 266° |
| 2026-04-25 08:56 | -27.55387 | 152.33343 | 5993 ft | 170 kts | 265° |
| 2026-04-25 08:56 | -27.55352 | 152.32009 | 6000 ft | 170 kts | 266° |
| 2026-04-25 08:57 | -27.55317 | 152.30674 | 5999 ft | 170 kts | 266° |
| 2026-04-25 08:57 | -27.55280 | 152.29336 | 5999 ft | 171 kts | 266° |
| 2026-04-25 08:57 | -27.55245 | 152.28000 | 6000 ft | 170 kts | 266° |
| 2026-04-25 08:57 | -27.55209 | 152.26665 | 5997 ft | 170 kts | 266° |
| 2026-04-25 08:58 | -27.55173 | 152.25334 | 5996 ft | 171 kts | 266° |
| 2026-04-25 08:58 | -27.55137 | 152.23993 | 5996 ft | 171 kts | 266° |
| 2026-04-25 08:58 | -27.55100 | 152.22653 | 5997 ft | 171 kts | 266° |
| 2026-04-25 08:58 | -27.55063 | 152.21310 | 6000 ft | 172 kts | 266° |
| 2026-04-25 08:59 | -27.55026 | 152.19964 | 6001 ft | 172 kts | 266° |
| 2026-04-25 08:59 | -27.54989 | 152.18623 | 6001 ft | 171 kts | 266° |
| 2026-04-25 08:59 | -27.54952 | 152.17280 | 6003 ft | 172 kts | 266° |
| 2026-04-25 08:59 | -27.54915 | 152.15950 | 6006 ft | 172 kts | 267° |
| 2026-04-25 09:00 | -27.54878 | 152.14594 | 6008 ft | 173 kts | 267° |
| 2026-04-25 09:00 | -27.54840 | 152.13239 | 6011 ft | 174 kts | 266° |
| 2026-04-25 09:00 | -27.54802 | 152.11883 | 6013 ft | 173 kts | 267° |
| 2026-04-25 09:00 | -27.54763 | 152.10526 | 6009 ft | 172 kts | 267° |
| 2026-04-25 09:01 | -27.54725 | 152.09181 | 6010 ft | 171 kts | 267° |
| 2026-04-25 09:01 | -27.54688 | 152.07841 | 6016 ft | 171 kts | 267° |
| 2026-04-25 09:01 | -27.54650 | 152.06497 | 6018 ft | 172 kts | 267° |
| 2026-04-25 09:01 | -27.54611 | 152.05150 | 6019 ft | 173 kts | 266° |
| 2026-04-25 09:02 | -27.54574 | 152.03795 | 6020 ft | 172 kts | 266° |
| 2026-04-25 09:02 | -27.54535 | 152.02440 | 6022 ft | 173 kts | 267° |
| 2026-04-25 09:02 | -27.54495 | 152.01079 | 6027 ft | 174 kts | 267° |
| 2026-04-25 09:02 | -27.54454 | 151.99720 | 6026 ft | 174 kts | 266° |
| 2026-04-25 09:03 | -27.54415 | 151.98365 | 6035 ft | 173 kts | 267° |
| 2026-04-25 09:03 | -27.54372 | 151.96997 | 6029 ft | 176 kts | 269° |
| 2026-04-25 09:03 | -27.54247 | 151.95644 | 6026 ft | 175 kts | 273° |
| 2026-04-25 09:03 | -27.54096 | 151.94284 | 6030 ft | 174 kts | 273° |
| 2026-04-25 09:04 | -27.53957 | 151.92920 | 6028 ft | 176 kts | 272° |
| 2026-04-25 09:04 | -27.53820 | 151.91552 | 6031 ft | 176 kts | 272° |
| 2026-04-25 09:04 | -27.53683 | 151.90175 | 6009 ft | 176 kts | 272° |
| 2026-04-25 09:04 | -27.53546 | 151.88810 | 6007 ft | 175 kts | 272° |
| 2026-04-25 09:05 | -27.53410 | 151.87445 | 5999 ft | 175 kts | 272° |
| 2026-04-25 09:05 | -27.53273 | 151.86084 | 6002 ft | 174 kts | 272° |
| 2026-04-25 09:05 | -27.53138 | 151.84727 | 6003 ft | 174 kts | 272° |
| 2026-04-25 09:05 | -27.53002 | 151.83370 | 6008 ft | 174 kts | 272° |
| 2026-04-25 09:06 | -27.52865 | 151.82011 | 6007 ft | 175 kts | 272° |
| 2026-04-25 09:06 | -27.52728 | 151.80651 | 6008 ft | 175 kts | 273° |
| 2026-04-25 09:06 | -27.52592 | 151.79302 | 6009 ft | 175 kts | 272° |
| 2026-04-25 09:06 | -27.52454 | 151.77929 | 6010 ft | 175 kts | 272° |
| 2026-04-25 09:07 | -27.52316 | 151.76568 | 6001 ft | 175 kts | 273° |
| 2026-04-25 09:07 | -27.52179 | 151.75211 | 6009 ft | 175 kts | 273° |
| 2026-04-25 09:07 | -27.52042 | 151.73854 | 6002 ft | 174 kts | 272° |
| 2026-04-25 09:07 | -27.51905 | 151.72500 | 6010 ft | 173 kts | 272° |
| 2026-04-25 09:08 | -27.51768 | 151.71145 | 6004 ft | 174 kts | 272° |
| 2026-04-25 09:08 | -27.51593 | 151.69795 | 5999 ft | 176 kts | 283° |
| 2026-04-25 09:08 | -27.50941 | 151.68652 | 5991 ft | 174 kts | 323° |
| 2026-04-25 09:08 | -27.49895 | 151.68147 | 5987 ft | 161 kts | 2° |
| 2026-04-25 09:09 | -27.48844 | 151.68361 | 5991 ft | 146 kts | 34° |
| 2026-04-25 09:09 | -27.48084 | 151.69014 | 5994 ft | 136 kts | 58° |
| 2026-04-25 09:09 | -27.47461 | 151.69812 | 5993 ft | 136 kts | 58° |
| 2026-04-25 09:09 | -27.46813 | 151.70602 | 6002 ft | 138 kts | 57° |
| 2026-04-25 09:10 | -27.46153 | 151.71394 | 5989 ft | 139 kts | 57° |
| 2026-04-25 09:10 | -27.45704 | 151.72316 | 5856 ft | 133 kts | 88° |
| 2026-04-25 09:10 | -27.45907 | 151.73304 | 5675 ft | 134 kts | 117° |
| 2026-04-25 09:10 | -27.46363 | 151.74241 | 5498 ft | 139 kts | 118° |
| 2026-04-25 09:11 | -27.47186 | 151.76038 | 5043 ft | 111 kts | 118° |
| 2026-04-25 09:11 | -27.47519 | 151.76773 | 4785 ft | 101 kts | 117° |
| 2026-04-25 09:11 | -27.47831 | 151.77464 | 4536 ft | 100 kts | 117° |
| 2026-04-25 09:12 | -27.48150 | 151.78170 | 4308 ft | 102 kts | 117° |
| 2026-04-25 09:12 | -27.48460 | 151.78857 | 4231 ft | 94 kts | 117° |
| 2026-04-25 09:12 | -27.48738 | 151.79474 | 4183 ft | 86 kts | 117° |
| 2026-04-25 09:12 | -27.49001 | 151.80057 | 4166 ft | 78 kts | 117° |
| 2026-04-25 09:13 | -27.49206 | 151.80544 | 4233 ft | 61 kts | 115° |
| 2026-04-25 09:13 | -27.49398 | 151.81002 | 4063 ft | 72 kts | 116° |
| 2026-04-25 09:13 | -27.49618 | 151.81519 | 3912 ft | 71 kts | 114° |
| 2026-04-25 09:13 | -27.49736 | 151.82050 | 3773 ft | 70 kts | 107° |
| 2026-04-25 09:14 | -27.49968 | 151.82548 | 3575 ft | 75 kts | 122° |
| 2026-04-25 09:14 | -27.50279 | 151.83050 | 3341 ft | 80 kts | 124° |
| 2026-04-25 09:14 | -27.50556 | 151.83552 | 3233 ft | 75 kts | 117° |
| 2026-04-25 09:14 | -27.50815 | 151.84072 | 3079 ft | 78 kts | 121° |
| 2026-04-25 09:15 | -27.51053 | 151.84627 | 2913 ft | 79 kts | 117° |
| 2026-04-25 09:15 | -27.51276 | 151.85136 | 3049 ft | 65 kts | 119° |
| 2026-04-25 09:15 | -27.51511 | 151.85651 | 2758 ft | 74 kts | 120° |
| 2026-04-25 09:15 | -27.51752 | 151.86153 | 2533 ft | 72 kts | 122° |
| 2026-04-25 09:16 | -27.52003 | 151.86605 | 2598 ft | 68 kts | 125° |
| 2026-04-25 09:16 | -27.52265 | 151.87060 | 2630 ft | 71 kts | 125° |
| 2026-04-25 09:16 | -27.52520 | 151.87498 | 2595 ft | 61 kts | 116° |
| 2026-04-25 09:16 | -27.52647 | 151.87968 | 2649 ft | 68 kts | 109° |
| 2026-04-25 09:17 | -27.53028 | 151.89046 | 2656 ft | 77 kts | 118° |
| 2026-04-25 09:17 | -27.53272 | 151.89572 | 2649 ft | 69 kts | 117° |
| 2026-04-25 09:17 | -27.53470 | 151.90005 | 2579 ft | 61 kts | 121° |
| 2026-04-25 09:18 | -27.53602 | 151.90291 | 2499 ft | 63 kts | 121° |
| 2026-04-25 09:18 | -27.53813 | 151.90751 | 2328 ft | 68 kts | 117° |
| 2026-04-25 09:18 | -27.54036 | 151.91234 | 2144 ft | 65 kts | 120° |
| 2026-04-25 09:18 | -27.54197 | 151.91586 | 2124 ft | 38 kts | 120° |
| 2026-04-25 09:19 | -27.54274 | 151.91786 | 2123 ft | 18 kts | 113° |
| 2026-04-25 09:19 | -27.54316 | 151.91871 | 2119 ft | 19 kts | 125° |
| 2026-04-25 09:19 | -27.54406 | 151.91854 | 2119 ft | 14 kts | 252° |
| 2026-04-25 09:19 | -27.54409 | 151.91842 | 2120 ft | 0 kts | 258° |